createdAt,value
2018-02-18T00:00:05.990Z,81.2
2018-02-18T00:01:06.749Z,80.2
2018-02-18T00:02:07.531Z,71.7
2018-02-18T00:03:08.308Z,91.0
2018-02-18T00:04:09.124Z,71.6
2018-02-18T00:05:09.856Z,76.6
2018-02-18T00:06:10.619Z,78.5
2018-02-18T00:07:11.336Z,75.6
2018-02-18T00:08:12.046Z,75.9
2018-02-18T00:09:12.760Z,82.4
2018-02-18T00:10:13.474Z,83.8
2018-02-18T00:11:14.272Z,80.6
2018-02-18T00:12:14.995Z,81.7
2018-02-18T00:13:15.763Z,81.3
2018-02-18T00:14:16.532Z,78.2
2018-02-18T00:15:17.254Z,85.3
2018-02-18T00:16:17.960Z,88.6
2018-02-18T00:17:18.756Z,87.2
2018-02-18T00:18:19.484Z,92.0
2018-02-18T00:19:20.260Z,81.3
2018-02-18T00:20:20.982Z,84.8
2018-02-18T00:21:21.699Z,82.5
2018-02-18T00:22:22.416Z,73.9
2018-02-18T00:23:23.148Z,96.5
2018-02-18T00:24:25.570Z,94.7
2018-02-18T00:25:26.346Z,91.2
2018-02-18T00:26:27.070Z,90.9
2018-02-18T00:27:27.798Z,88.9
2018-02-18T00:28:28.521Z,73.3
2018-02-18T00:29:29.240Z,89.0
2018-02-18T00:30:29.963Z,86.8
2018-02-18T00:31:30.690Z,97.5
2018-02-18T00:32:31.425Z,86.6
2018-02-18T00:33:32.155Z,90.8
2018-02-18T00:34:32.920Z,94.5
2018-02-18T00:35:33.718Z,94.5
2018-02-18T00:36:34.501Z,88.8
2018-02-18T00:37:35.354Z,103.8
2018-02-18T00:38:36.182Z,84.1
2018-02-18T00:39:37.046Z,92.4
2018-02-18T00:40:37.788Z,84.6
2018-02-18T00:41:38.591Z,83.5
2018-02-18T00:42:39.314Z,96.6
2018-02-18T00:43:40.043Z,82.4
2018-02-18T00:44:40.764Z,82.0
2018-02-18T00:45:41.478Z,88.9
2018-02-18T00:46:42.270Z,77.2
2018-02-18T00:47:43.102Z,88.1
2018-02-18T00:48:43.864Z,93.7
2018-02-18T00:49:44.558Z,85.1
2018-02-18T00:50:45.291Z,79.0
2018-02-18T00:51:46.078Z,84.0
2018-02-18T00:52:46.838Z,86.5
2018-02-18T00:53:47.548Z,80.1
2018-02-18T00:54:48.260Z,77.5
2018-02-18T00:55:48.969Z,71.8
2018-02-18T00:56:49.736Z,82.8
2018-02-18T00:57:50.457Z,74.6
2018-02-18T00:58:51.191Z,80.9
2018-02-18T00:59:51.916Z,77.8
2018-02-18T01:00:52.648Z,82.2
2018-02-18T01:01:53.467Z,79.8
2018-02-18T01:02:54.200Z,80.5
2018-02-18T01:03:54.920Z,83.2
2018-02-18T01:04:55.652Z,78.4
2018-02-18T01:05:56.450Z,83.4
2018-02-18T01:06:57.173Z,70.6
2018-02-18T01:07:59.154Z,74.3
2018-02-18T01:08:59.890Z,83.7
2018-02-18T01:10:00.596Z,80.4
2018-02-18T01:11:01.300Z,72.7
2018-02-18T01:12:02.008Z,78.2
2018-02-18T01:13:02.728Z,83.8
2018-02-18T01:14:03.438Z,68.3
2018-02-18T01:15:04.228Z,76.3
2018-02-18T01:16:05.000Z,69.6
2018-02-18T01:17:05.718Z,73.0
2018-02-18T01:18:06.471Z,70.9
2018-02-18T01:19:07.189Z,71.9
2018-02-18T01:20:07.918Z,79.7
2018-02-18T01:21:08.722Z,82.5
2018-02-18T01:22:09.946Z,78.7
2018-02-18T01:23:10.698Z,76.9
2018-02-18T01:24:11.457Z,73.9
2018-02-18T01:25:12.177Z,77.1
2018-02-18T01:26:12.943Z,70.0
2018-02-18T01:27:13.647Z,67.1
2018-02-18T01:28:14.409Z,68.6
2018-02-18T01:29:15.116Z,74.8
2018-02-18T01:30:15.838Z,67.3
2018-02-18T01:31:16.532Z,81.1
2018-02-18T01:32:17.348Z,80.7
2018-02-18T01:33:18.146Z,81.4
2018-02-18T01:34:18.876Z,76.6
2018-02-18T01:35:19.667Z,77.0
2018-02-18T01:36:20.378Z,78.4
2018-02-18T01:37:21.106Z,87.3
2018-02-18T01:38:21.931Z,83.5
2018-02-18T01:39:22.685Z,78.3
2018-02-18T01:40:23.408Z,75.3
2018-02-18T01:41:24.142Z,91.0
2018-02-18T01:42:24.862Z,85.7
2018-02-18T01:43:25.678Z,81.2
2018-02-18T01:44:26.431Z,79.1
2018-02-18T01:45:27.224Z,79.6
2018-02-18T01:46:27.994Z,75.9
2018-02-18T01:47:28.717Z,73.1
2018-02-18T01:48:29.502Z,80.7
2018-02-18T01:49:30.227Z,79.8
2018-02-18T01:50:30.962Z,84.1
2018-02-18T01:51:31.660Z,80.1
2018-02-18T01:52:32.426Z,74.2
2018-02-18T01:53:33.201Z,79.6
2018-02-18T01:54:33.922Z,91.6
2018-02-18T01:55:34.648Z,78.4
2018-02-18T01:56:35.357Z,83.1
2018-02-18T01:57:36.066Z,81.1
2018-02-18T01:58:36.812Z,83.7
2018-02-18T01:59:37.596Z,84.9
2018-02-18T02:00:38.324Z,76.5
2018-02-18T02:01:39.077Z,81.4
2018-02-18T02:02:39.797Z,78.8
2018-02-18T02:03:40.517Z,76.2
2018-02-18T02:04:41.248Z,76.2
2018-02-18T02:05:41.972Z,75.2
2018-02-18T02:06:42.729Z,73.4
2018-02-18T02:07:43.446Z,74.7
2018-02-18T02:08:44.207Z,75.3
2018-02-18T02:09:44.962Z,78.9
2018-02-18T02:10:45.717Z,89.4
2018-02-18T02:11:46.429Z,76.3
2018-02-18T02:12:47.158Z,74.1
2018-02-18T02:13:47.892Z,84.8
2018-02-18T02:14:48.596Z,79.8
2018-02-18T02:15:49.330Z,74.0
2018-02-18T02:16:50.053Z,74.3
2018-02-18T02:17:50.798Z,81.9
2018-02-18T02:18:51.516Z,79.1
2018-02-18T02:19:52.238Z,65.1
2018-02-18T02:20:53.016Z,68.1
2018-02-18T02:21:53.757Z,77.9
2018-02-18T02:22:54.529Z,74.3
2018-02-18T02:23:55.301Z,72.6
2018-02-18T02:24:56.006Z,78.2
2018-02-18T02:25:56.730Z,75.7
2018-02-18T02:26:57.460Z,77.1
2018-02-18T02:27:58.166Z,67.4
2018-02-18T02:28:58.890Z,71.1
2018-02-18T02:29:59.630Z,66.9
2018-02-18T02:31:00.347Z,70.2
2018-02-18T02:32:01.058Z,63.5
2018-02-18T02:33:01.780Z,73.8
2018-02-18T02:34:02.512Z,65.0
2018-02-18T02:35:03.339Z,67.8
2018-02-18T02:36:04.062Z,78.5
2018-02-18T02:37:04.790Z,73.3
2018-02-18T02:38:05.503Z,72.0
2018-02-18T02:39:06.289Z,68.8
2018-02-18T02:40:07.076Z,68.4
2018-02-18T02:41:07.870Z,67.3
2018-02-18T02:42:08.585Z,69.4
2018-02-18T02:43:09.353Z,67.1
2018-02-18T02:44:10.106Z,73.9
2018-02-18T02:45:10.878Z,77.4
2018-02-18T02:46:11.726Z,72.8
2018-02-18T02:47:12.507Z,78.1
2018-02-18T02:48:13.238Z,81.9
2018-02-18T02:49:13.955Z,74.7
2018-02-18T02:50:14.666Z,70.7
2018-02-18T02:51:15.489Z,78.4
2018-02-18T02:52:16.402Z,79.5
2018-02-18T02:53:17.027Z,63.2
2018-02-18T02:54:17.745Z,73.3
2018-02-18T02:55:18.466Z,75.4
2018-02-18T02:56:19.227Z,72.9
2018-02-18T02:57:19.958Z,72.2
2018-02-18T02:58:20.673Z,82.8
2018-02-18T02:59:21.390Z,69.5
2018-02-18T03:00:22.098Z,73.0
2018-02-18T03:01:22.812Z,76.8
2018-02-18T03:02:23.528Z,80.2
2018-02-18T03:03:24.242Z,65.4
2018-02-18T03:04:24.960Z,72.5
2018-02-18T03:05:25.669Z,71.0
2018-02-18T03:06:26.385Z,61.9
2018-02-18T03:07:27.108Z,69.3
2018-02-18T03:08:27.826Z,66.4
2018-02-18T03:09:28.560Z,65.6
2018-02-18T03:10:29.282Z,62.3
2018-02-18T03:11:30.017Z,59.9
2018-02-18T03:12:30.736Z,58.4
2018-02-18T03:13:31.529Z,62.1
2018-02-18T03:14:32.236Z,56.2
2018-02-18T03:15:32.953Z,62.6
2018-02-18T03:16:33.675Z,61.5
2018-02-18T03:17:34.397Z,66.2
2018-02-18T03:18:35.120Z,67.1
2018-02-18T03:19:35.841Z,59.6
2018-02-18T03:20:36.556Z,57.3
2018-02-18T03:21:37.294Z,63.2
2018-02-18T03:22:38.006Z,65.9
2018-02-18T03:23:38.845Z,64.5
2018-02-18T03:24:39.571Z,64.4
2018-02-18T03:25:40.345Z,74.9
2018-02-18T03:26:41.069Z,64.6
2018-02-18T03:27:41.796Z,64.2
2018-02-18T03:28:42.629Z,62.5
2018-02-18T03:29:43.359Z,59.5
2018-02-18T03:30:44.081Z,62.8
2018-02-18T03:31:44.788Z,58.4
2018-02-18T03:32:45.510Z,64.4
2018-02-18T03:33:46.281Z,57.3
2018-02-18T03:34:47.000Z,62.9
2018-02-18T03:35:47.707Z,63.3
2018-02-18T03:36:48.427Z,68.1
2018-02-18T03:37:49.162Z,64.1
2018-02-18T03:38:49.940Z,66.8
2018-02-18T03:39:50.659Z,61.4
2018-02-18T03:40:51.370Z,69.5
2018-02-18T03:41:52.105Z,61.4
2018-02-18T03:42:52.828Z,56.6
2018-02-18T03:43:53.562Z,59.7
2018-02-18T03:44:54.278Z,70.2
2018-02-18T03:45:54.982Z,59.0
2018-02-18T03:46:55.715Z,58.1
2018-02-18T03:47:56.502Z,52.5
2018-02-18T03:48:57.269Z,64.1
2018-02-18T03:49:57.999Z,58.7
2018-02-18T03:50:58.769Z,60.6
2018-02-18T03:51:59.561Z,55.3
2018-02-18T03:53:00.344Z,66.5
2018-02-18T03:54:01.002Z,59.6
2018-02-18T03:55:01.781Z,63.0
2018-02-18T03:56:02.580Z,54.3
2018-02-18T03:57:03.328Z,65.4
2018-02-18T03:58:04.061Z,72.6
2018-02-18T03:59:04.845Z,65.1
2018-02-18T04:00:05.702Z,68.5
2018-02-18T04:01:06.406Z,61.8
2018-02-18T04:02:07.117Z,52.7
2018-02-18T04:03:07.836Z,62.8
2018-02-18T04:04:08.549Z,63.2
2018-02-18T04:05:09.272Z,59.8
2018-02-18T04:06:10.008Z,55.6
2018-02-18T04:07:10.746Z,58.8
2018-02-18T04:08:11.479Z,55.9
2018-02-18T04:09:12.186Z,59.4
2018-02-18T04:10:12.920Z,69.4
2018-02-18T04:11:13.628Z,61.1
2018-02-18T04:12:14.337Z,69.9
2018-02-18T04:13:15.043Z,56.9
2018-02-18T04:14:15.773Z,60.9
2018-02-18T04:15:16.552Z,56.9
2018-02-18T04:16:17.349Z,60.6
2018-02-18T04:17:18.124Z,59.4
2018-02-18T04:18:18.893Z,60.6
2018-02-18T04:19:19.611Z,57.1
2018-02-18T04:20:20.330Z,57.7
2018-02-18T04:21:21.064Z,59.3
2018-02-18T04:22:21.789Z,56.7
2018-02-18T04:23:22.568Z,63.3
2018-02-18T04:24:23.380Z,64.6
2018-02-18T04:25:24.108Z,69.1
2018-02-18T04:26:24.865Z,68.3
2018-02-18T04:27:25.681Z,59.9
2018-02-18T04:28:26.408Z,59.7
2018-02-18T04:29:27.120Z,61.5
2018-02-18T04:30:27.837Z,64.0
2018-02-18T04:31:28.535Z,61.8
2018-02-18T04:32:29.305Z,56.1
2018-02-18T04:33:30.039Z,64.0
2018-02-18T04:34:30.748Z,67.9
2018-02-18T04:35:31.468Z,60.0
2018-02-18T04:36:32.209Z,60.8
2018-02-18T04:37:32.939Z,62.4
2018-02-18T04:38:33.661Z,69.2
2018-02-18T04:39:34.449Z,62.4
2018-02-18T04:40:35.174Z,55.5
2018-02-18T04:41:35.887Z,54.8
2018-02-18T04:42:36.609Z,58.2
2018-02-18T04:43:37.409Z,64.4
2018-02-18T04:44:38.127Z,58.6
2018-02-18T04:45:38.848Z,62.2
2018-02-18T04:46:39.627Z,48.5
2018-02-18T04:47:40.345Z,52.8
2018-02-18T04:48:41.085Z,69.9
2018-02-18T04:49:41.863Z,62.9
2018-02-18T04:50:42.590Z,67.8
2018-02-18T04:51:43.376Z,62.7
2018-02-18T04:52:44.110Z,61.2
2018-02-18T04:53:44.827Z,71.5
2018-02-18T04:54:45.544Z,64.1
2018-02-18T04:55:46.297Z,58.2
2018-02-18T04:56:47.071Z,62.6
2018-02-18T04:57:47.786Z,66.6
2018-02-18T04:58:48.501Z,62.1
2018-02-18T04:59:49.280Z,64.2
2018-02-18T05:00:49.991Z,59.1
2018-02-18T05:01:50.728Z,66.3
2018-02-18T05:02:51.450Z,56.4
2018-02-18T05:03:52.236Z,59.8
2018-02-18T05:04:52.947Z,61.1
2018-02-18T05:05:53.668Z,66.7
2018-02-18T05:06:54.474Z,56.2
2018-02-18T05:07:55.169Z,57.2
2018-02-18T05:08:55.900Z,63.0
2018-02-18T05:09:56.616Z,56.2
2018-02-18T05:10:57.327Z,68.1
2018-02-18T05:11:58.043Z,56.1
2018-02-18T05:12:58.768Z,62.5
2018-02-18T05:13:59.497Z,63.2
2018-02-18T05:15:00.206Z,60.3
2018-02-18T05:16:00.914Z,65.7
2018-02-18T05:17:01.621Z,63.8
2018-02-18T05:18:02.341Z,56.8
2018-02-18T05:19:03.064Z,54.8
2018-02-18T05:20:03.802Z,52.3
2018-02-18T05:21:04.521Z,57.1
2018-02-18T05:22:05.285Z,61.4
2018-02-18T05:23:06.022Z,64.1
2018-02-18T05:24:06.830Z,53.8
2018-02-18T05:25:07.598Z,60.7
2018-02-18T05:26:08.397Z,65.3
2018-02-18T05:27:09.169Z,55.5
2018-02-18T05:28:09.886Z,60.9
2018-02-18T05:29:10.604Z,69.0
2018-02-18T05:30:11.318Z,62.8
2018-02-18T05:31:12.080Z,61.3
2018-02-18T05:32:12.856Z,54.5
2018-02-18T05:33:13.631Z,55.4
2018-02-18T05:34:14.360Z,69.2
2018-02-18T05:35:15.070Z,61.3
2018-02-18T05:36:15.801Z,59.1
2018-02-18T05:37:16.666Z,65.5
2018-02-18T05:38:17.459Z,56.2
2018-02-18T05:39:18.208Z,62.9
2018-02-18T05:40:18.976Z,61.8
2018-02-18T05:41:19.755Z,57.3
2018-02-18T05:42:20.593Z,56.0
2018-02-18T05:43:21.391Z,59.9
2018-02-18T05:44:22.153Z,63.0
2018-02-18T05:45:22.871Z,62.9
2018-02-18T05:46:23.586Z,52.4
2018-02-18T05:47:24.427Z,58.1
2018-02-18T05:48:25.137Z,53.9
2018-02-18T05:49:25.846Z,56.8
2018-02-18T05:50:26.556Z,62.9
2018-02-18T05:51:27.256Z,55.8
2018-02-18T05:52:27.983Z,49.9
2018-02-18T05:53:28.706Z,64.5
2018-02-18T05:54:29.417Z,55.0
2018-02-18T05:55:30.134Z,54.8
2018-02-18T05:56:30.866Z,52.0
2018-02-18T05:57:31.661Z,51.0
2018-02-18T05:58:32.493Z,50.5
2018-02-18T05:59:33.207Z,62.1
2018-02-18T06:00:33.920Z,69.8
2018-02-18T06:01:34.639Z,83.0
2018-02-18T06:02:35.352Z,56.1
2018-02-18T06:03:36.067Z,55.0
2018-02-18T06:04:36.793Z,59.1
2018-02-18T06:05:37.548Z,54.5
2018-02-18T06:06:38.258Z,57.1
2018-02-18T06:07:38.965Z,69.5
2018-02-18T06:08:39.740Z,59.3
2018-02-18T06:09:40.515Z,62.8
2018-02-18T06:10:41.244Z,80.7
2018-02-18T06:11:42.000Z,57.3
2018-02-18T06:12:42.712Z,52.7
2018-02-18T06:13:43.372Z,49.4
2018-02-18T06:14:44.089Z,43.0
2018-02-18T06:15:44.872Z,47.2
2018-02-18T06:16:45.677Z,58.9
2018-02-18T06:17:46.382Z,47.9
2018-02-18T06:18:47.101Z,48.6
2018-02-18T06:19:47.907Z,44.2
2018-02-18T06:20:48.666Z,52.4
2018-02-18T06:21:49.396Z,49.2
2018-02-18T06:22:50.202Z,53.3
2018-02-18T06:23:50.955Z,45.0
2018-02-18T06:24:51.682Z,45.4
2018-02-18T06:25:52.450Z,43.2
2018-02-18T06:26:53.180Z,43.7
2018-02-18T06:27:53.900Z,44.5
2018-02-18T06:28:54.627Z,47.1
2018-02-18T06:29:55.395Z,43.2
2018-02-18T06:30:56.227Z,44.3
2018-02-18T06:31:56.950Z,49.7
2018-02-18T06:32:57.678Z,48.6
2018-02-18T06:33:58.417Z,42.7
2018-02-18T06:34:59.134Z,52.0
2018-02-18T06:35:59.910Z,44.8
2018-02-18T06:37:00.632Z,53.5
2018-02-18T06:38:01.431Z,43.6
2018-02-18T06:39:02.174Z,42.4
2018-02-18T06:40:02.909Z,47.0
2018-02-18T06:41:03.717Z,49.5
2018-02-18T06:42:04.456Z,59.0
2018-02-18T06:43:05.171Z,52.0
2018-02-18T06:44:05.965Z,44.8
2018-02-18T06:45:06.699Z,45.7
2018-02-18T06:46:07.431Z,51.3
2018-02-18T06:47:08.149Z,46.7
2018-02-18T06:48:08.857Z,44.4
2018-02-18T06:49:09.577Z,52.1
2018-02-18T06:50:10.294Z,58.7
2018-02-18T06:51:11.029Z,53.4
2018-02-18T06:52:11.743Z,46.1
2018-02-18T06:53:12.518Z,53.3
2018-02-18T06:54:13.246Z,43.6
2018-02-18T06:55:13.969Z,44.2
2018-02-18T06:56:14.686Z,54.5
2018-02-18T06:57:15.412Z,53.3
2018-02-18T06:58:16.150Z,48.4
2018-02-18T06:59:16.947Z,51.8
2018-02-18T07:00:17.682Z,57.9
2018-02-18T07:01:18.460Z,48.4
2018-02-18T07:02:19.176Z,48.7
2018-02-18T07:03:19.895Z,57.7
2018-02-18T07:04:20.619Z,56.4
2018-02-18T07:05:21.403Z,43.6
2018-02-18T07:06:22.179Z,41.6
2018-02-18T07:07:22.908Z,49.0
2018-02-18T07:08:23.633Z,51.2
2018-02-18T07:09:24.439Z,52.5
2018-02-18T07:10:25.163Z,70.4
2018-02-18T07:11:25.899Z,52.8
2018-02-18T07:12:26.620Z,53.1
2018-02-18T07:13:27.336Z,65.0
2018-02-18T07:14:28.072Z,59.4
2018-02-18T07:15:28.845Z,56.5
2018-02-18T07:16:29.564Z,53.4
2018-02-18T07:17:30.340Z,60.8
2018-02-18T07:18:31.085Z,70.7
2018-02-18T07:19:31.813Z,56.7
2018-02-18T07:20:32.551Z,59.7
2018-02-18T07:21:33.321Z,57.5
2018-02-18T07:22:34.125Z,73.5
2018-02-18T07:23:34.851Z,61.3
2018-02-18T07:24:35.611Z,63.7
2018-02-18T07:25:36.391Z,76.1
2018-02-18T07:26:37.180Z,62.9
2018-02-18T07:27:37.955Z,75.1
2018-02-18T07:28:38.700Z,67.7
2018-02-18T07:29:39.426Z,71.5
2018-02-18T07:30:40.195Z,78.6
2018-02-18T07:31:40.941Z,84.3
2018-02-18T07:32:41.670Z,79.1
2018-02-18T07:33:42.401Z,82.5
2018-02-18T07:34:43.120Z,80.8
2018-02-18T07:35:43.862Z,83.3
2018-02-18T07:36:44.640Z,97.6
2018-02-18T07:37:45.358Z,84.5
2018-02-18T07:38:46.148Z,91.6
2018-02-18T07:39:46.926Z,99.6
2018-02-18T07:40:47.748Z,102.4
2018-02-18T07:41:48.510Z,95.0
2018-02-18T07:42:49.238Z,91.4
2018-02-18T07:43:50.050Z,99.2
2018-02-18T07:44:50.774Z,86.7
2018-02-18T07:45:51.519Z,100.0
2018-02-18T07:46:52.337Z,107.9
2018-02-18T07:47:53.080Z,92.1
2018-02-18T07:48:53.833Z,97.0
2018-02-18T07:49:54.576Z,110.3
2018-02-18T07:50:55.355Z,103.6
2018-02-18T07:51:56.088Z,104.2
2018-02-18T07:52:56.812Z,103.9
2018-02-18T07:53:57.604Z,119.4
2018-02-18T07:54:58.383Z,96.9
2018-02-18T07:55:59.108Z,113.9
2018-02-18T07:56:59.840Z,114.6
2018-02-18T07:58:00.594Z,117.5
2018-02-18T07:59:01.380Z,104.6
2018-02-18T08:00:02.099Z,106.1
2018-02-18T08:01:02.818Z,115.6
2018-02-18T08:02:03.541Z,114.4
2018-02-18T08:03:04.303Z,107.9
2018-02-18T08:04:05.020Z,107.6
2018-02-18T08:05:05.752Z,101.6
2018-02-18T08:06:06.511Z,91.3
2018-02-18T08:07:07.227Z,95.3
2018-02-18T08:08:07.964Z,95.0
2018-02-18T08:09:08.726Z,84.0
2018-02-18T08:10:09.450Z,91.5
2018-02-18T08:11:10.287Z,92.6
2018-02-18T08:12:11.025Z,76.0
2018-02-18T08:13:11.769Z,74.8
2018-02-18T08:14:12.542Z,66.1
2018-02-18T08:15:13.288Z,61.3
2018-02-18T08:16:14.079Z,61.0
2018-02-18T08:17:14.816Z,58.3
2018-02-18T08:18:15.534Z,51.9
2018-02-18T08:19:16.315Z,52.8
2018-02-18T08:20:17.040Z,44.0
2018-02-18T08:21:17.837Z,43.8
2018-02-18T08:22:18.647Z,38.0
2018-02-18T08:23:19.380Z,43.3
2018-02-18T08:24:20.096Z,38.6
2018-02-18T08:25:20.826Z,33.3
2018-02-18T08:26:21.586Z,47.4
2018-02-18T08:27:22.306Z,36.7
2018-02-18T08:28:23.066Z,36.1
2018-02-18T08:29:23.768Z,40.9
2018-02-18T08:30:24.505Z,33.8
2018-02-18T08:31:25.278Z,39.1
2018-02-18T08:32:26.045Z,35.9
2018-02-18T08:33:26.770Z,36.3
2018-02-18T08:34:27.497Z,34.3
2018-02-18T08:35:28.219Z,47.3
2018-02-18T08:36:28.959Z,39.8
2018-02-18T08:37:29.676Z,40.4
2018-02-18T08:38:30.401Z,41.0
2018-02-18T08:39:31.129Z,32.2
2018-02-18T08:40:31.902Z,32.6
2018-02-18T08:41:32.633Z,36.7
2018-02-18T08:42:33.376Z,36.3
2018-02-18T08:43:34.111Z,32.7
2018-02-18T08:44:34.839Z,35.5
2018-02-18T08:45:35.581Z,27.4
2018-02-18T08:46:36.303Z,25.3
2018-02-18T08:47:37.117Z,30.4
2018-02-18T08:48:37.827Z,34.4
2018-02-18T08:49:38.600Z,29.8
2018-02-18T08:50:39.377Z,30.3
2018-02-18T08:51:40.083Z,29.2
2018-02-18T08:52:40.810Z,28.7
2018-02-18T08:53:41.531Z,31.6
2018-02-18T08:54:42.295Z,29.2
2018-02-18T08:55:43.017Z,32.7
2018-02-18T08:56:43.772Z,33.9
2018-02-18T08:57:44.472Z,29.4
2018-02-18T08:58:45.270Z,30.0
2018-02-18T08:59:46.071Z,32.5
2018-02-18T09:00:46.800Z,31.3
2018-02-18T09:01:47.538Z,34.8
2018-02-18T09:02:48.309Z,34.1
2018-02-18T09:03:49.039Z,26.8
2018-02-18T09:04:49.855Z,35.8
2018-02-18T09:05:50.616Z,32.4
2018-02-18T09:06:51.368Z,29.5
2018-02-18T09:07:52.166Z,27.8
2018-02-18T09:08:52.922Z,35.8
2018-02-18T09:09:53.718Z,28.9
2018-02-18T09:10:54.534Z,29.5
2018-02-18T09:11:55.347Z,27.5
2018-02-18T09:12:56.131Z,28.2
2018-02-18T09:13:56.856Z,30.7
2018-02-18T09:14:57.660Z,28.0
2018-02-18T09:15:58.382Z,29.6
2018-02-18T09:16:59.108Z,24.5
2018-02-18T09:17:59.842Z,24.2
2018-02-18T09:19:00.630Z,23.3
2018-02-18T09:20:01.364Z,23.5
2018-02-18T09:21:02.137Z,25.1
2018-02-18T09:22:02.927Z,25.6
2018-02-18T09:23:03.656Z,31.3
2018-02-18T09:24:04.382Z,24.5
2018-02-18T09:25:05.180Z,27.7
2018-02-18T09:26:05.960Z,27.1
2018-02-18T09:27:06.688Z,29.9
2018-02-18T09:28:07.571Z,28.3
2018-02-18T09:29:08.285Z,24.5
2018-02-18T09:30:09.019Z,27.1
2018-02-18T09:31:09.743Z,25.6
2018-02-18T09:32:10.481Z,26.0
2018-02-18T09:33:11.348Z,26.2
2018-02-18T09:34:12.118Z,21.9
2018-02-18T09:35:12.851Z,25.9
2018-02-18T09:36:13.573Z,28.4
2018-02-18T09:37:14.305Z,26.3
2018-02-18T09:38:15.024Z,30.4
2018-02-18T09:39:15.749Z,29.6
2018-02-18T09:40:16.554Z,28.2
2018-02-18T09:41:17.400Z,24.8
2018-02-18T09:42:18.140Z,26.0
2018-02-18T09:43:18.943Z,34.4
2018-02-18T09:44:19.664Z,24.3
2018-02-18T09:45:20.392Z,22.8
2018-02-18T09:46:21.172Z,20.5
2018-02-18T09:47:21.982Z,25.9
2018-02-18T09:48:22.711Z,24.9
2018-02-18T09:49:23.432Z,27.0
2018-02-18T09:50:24.158Z,21.8
2018-02-18T09:51:24.942Z,27.8
2018-02-18T09:52:25.666Z,24.8
2018-02-18T09:53:26.390Z,23.4
2018-02-18T09:54:27.135Z,27.6
2018-02-18T09:55:27.859Z,22.7
2018-02-18T09:56:28.711Z,28.7
2018-02-18T09:57:29.485Z,26.6
2018-02-18T09:58:30.215Z,27.1
2018-02-18T09:59:31.028Z,24.7
2018-02-18T10:00:31.788Z,26.5
2018-02-18T10:01:32.589Z,28.3
2018-02-18T10:02:33.367Z,25.8
2018-02-18T10:03:34.099Z,24.0
2018-02-18T10:04:34.905Z,22.0
2018-02-18T10:05:35.648Z,22.1
2018-02-18T10:06:36.379Z,23.3
2018-02-18T10:07:37.162Z,27.9
2018-02-18T10:08:37.926Z,24.3
2018-02-18T10:09:38.613Z,21.6
2018-02-18T10:10:39.356Z,25.3
2018-02-18T10:11:40.202Z,21.8
2018-02-18T10:12:40.926Z,24.7
2018-02-18T10:13:41.659Z,25.2
2018-02-18T10:14:42.373Z,25.6
2018-02-18T10:15:43.157Z,26.3
2018-02-18T10:16:43.935Z,22.3
2018-02-18T10:17:44.694Z,25.3
2018-02-18T10:18:45.488Z,28.1
2018-02-18T10:19:46.307Z,26.8
2018-02-18T10:20:47.082Z,29.0
2018-02-18T10:21:47.868Z,29.6
2018-02-18T10:22:48.588Z,25.9
2018-02-18T10:23:49.348Z,24.1
2018-02-18T10:24:50.215Z,25.5
2018-02-18T10:25:50.979Z,25.5
2018-02-18T10:26:51.775Z,27.1
2018-02-18T10:27:52.583Z,22.6
2018-02-18T10:28:53.442Z,27.3
2018-02-18T10:29:54.364Z,30.3
2018-02-18T10:30:55.121Z,28.0
2018-02-18T10:31:55.836Z,26.6
2018-02-18T10:32:56.548Z,24.1
2018-02-18T10:33:57.350Z,29.9
2018-02-18T10:34:58.088Z,30.2
2018-02-18T10:35:58.883Z,31.4
2018-02-18T10:36:59.633Z,29.6
2018-02-18T10:38:00.428Z,24.8
2018-02-18T10:39:01.250Z,30.4
2018-02-18T10:40:01.972Z,26.8
2018-02-18T10:41:02.712Z,23.1
2018-02-18T10:42:03.449Z,32.7
2018-02-18T10:43:04.189Z,29.3
2018-02-18T10:44:05.001Z,28.5
2018-02-18T10:45:05.742Z,27.2
2018-02-18T10:46:06.458Z,22.4
2018-02-18T10:47:07.378Z,24.8
2018-02-18T10:48:08.097Z,24.1
2018-02-18T10:49:08.817Z,26.9
2018-02-18T10:50:09.560Z,27.5
2018-02-18T10:51:10.463Z,30.1
2018-02-18T10:52:11.421Z,29.9
2018-02-18T10:53:12.149Z,29.0
2018-02-18T10:54:12.970Z,25.8
2018-02-18T10:55:13.748Z,27.8
2018-02-18T10:56:14.481Z,28.2
2018-02-18T10:57:16.095Z,27.4
2018-02-18T10:58:16.754Z,29.7
2018-02-18T10:59:17.530Z,31.2
2018-02-18T11:00:18.263Z,31.7
2018-02-18T11:01:19.057Z,30.4
2018-02-18T11:02:19.804Z,26.2
2018-02-18T11:03:20.598Z,26.5
2018-02-18T11:04:21.392Z,33.9
2018-02-18T11:05:22.231Z,27.0
2018-02-18T11:06:23.005Z,25.3
2018-02-18T11:07:23.731Z,26.1
2018-02-18T11:08:24.469Z,31.8
2018-02-18T11:09:25.204Z,23.3
2018-02-18T11:10:25.948Z,24.6
2018-02-18T11:11:26.763Z,25.1
2018-02-18T11:12:27.503Z,30.3
2018-02-18T11:13:28.240Z,22.2
2018-02-18T11:14:28.979Z,27.3
2018-02-18T11:15:29.695Z,25.9
2018-02-18T11:16:30.470Z,25.2
2018-02-18T11:17:31.200Z,32.3
2018-02-18T11:18:31.951Z,27.9
2018-02-18T11:19:32.688Z,23.9
2018-02-18T11:20:33.425Z,28.1
2018-02-18T11:21:34.199Z,29.7
2018-02-18T11:22:34.931Z,25.8
2018-02-18T11:23:35.657Z,22.9
2018-02-18T11:24:36.398Z,27.8
2018-02-18T11:25:37.128Z,26.3
2018-02-18T11:26:37.932Z,29.7
2018-02-18T11:27:38.753Z,28.5
2018-02-18T11:28:39.544Z,28.3
2018-02-18T11:29:40.281Z,29.3
2018-02-18T11:30:41.009Z,24.7
2018-02-18T11:31:41.732Z,26.0
2018-02-18T11:32:42.471Z,28.7
2018-02-18T11:33:43.307Z,24.7
2018-02-18T11:34:44.048Z,29.0
2018-02-18T11:35:44.716Z,27.6
2018-02-18T11:36:45.439Z,26.7
2018-02-18T11:37:46.162Z,28.7
2018-02-18T11:38:47.059Z,28.1
2018-02-18T11:39:47.794Z,27.9
2018-02-18T11:40:48.532Z,28.4
2018-02-18T11:41:49.316Z,28.8
2018-02-18T11:42:50.078Z,26.8
2018-02-18T11:43:50.851Z,33.3
2018-02-18T11:44:51.669Z,27.7
2018-02-18T11:45:52.452Z,26.2
2018-02-18T11:46:53.184Z,30.0
2018-02-18T11:47:53.962Z,26.1
2018-02-18T11:48:54.714Z,24.4
2018-02-18T11:49:55.494Z,32.2
2018-02-18T11:50:56.285Z,25.7
2018-02-18T11:51:57.046Z,27.9
2018-02-18T11:52:57.792Z,22.9
2018-02-18T11:53:58.590Z,24.6
2018-02-18T11:54:59.314Z,24.4
2018-02-18T11:56:00.049Z,28.5
2018-02-18T11:57:00.790Z,31.2
2018-02-18T11:58:01.525Z,36.1
2018-02-18T11:59:02.259Z,22.8
2018-02-18T12:00:02.989Z,27.8
2018-02-18T12:01:03.769Z,28.2
2018-02-18T12:02:04.506Z,28.6
2018-02-18T12:03:05.232Z,23.8
2018-02-18T12:04:05.964Z,26.8
2018-02-18T12:05:06.697Z,22.1
2018-02-18T12:06:07.534Z,26.9
2018-02-18T12:07:08.324Z,24.1
2018-02-18T12:08:09.135Z,28.2
2018-02-18T12:09:09.870Z,25.6
2018-02-18T12:10:10.596Z,26.3
2018-02-18T12:11:11.386Z,21.7
2018-02-18T12:12:12.121Z,25.5
2018-02-18T12:13:12.843Z,24.7
2018-02-18T12:14:13.572Z,25.9
2018-02-18T12:15:14.310Z,25.2
2018-02-18T12:16:15.043Z,21.2
2018-02-18T12:17:15.765Z,26.2
2018-02-18T12:18:16.500Z,25.9
2018-02-18T12:19:17.236Z,24.0
2018-02-18T12:20:18.029Z,27.0
2018-02-18T12:21:18.770Z,24.9
2018-02-18T12:22:19.492Z,22.6
2018-02-18T12:23:20.214Z,25.5
2018-02-18T12:24:20.998Z,25.6
2018-02-18T12:25:21.774Z,26.1
2018-02-18T12:26:22.497Z,26.9
2018-02-18T12:27:23.276Z,29.4
2018-02-18T12:28:24.011Z,27.5
2018-02-18T12:29:24.767Z,26.7
2018-02-18T12:30:25.496Z,29.2
2018-02-18T12:31:26.225Z,26.1
2018-02-18T12:32:27.036Z,26.5
2018-02-18T12:33:27.809Z,27.2
2018-02-18T12:34:28.536Z,27.4
2018-02-18T12:35:29.265Z,28.9
2018-02-18T12:36:30.013Z,28.0
2018-02-18T12:37:30.744Z,29.7
2018-02-18T12:38:31.540Z,28.5
2018-02-18T12:39:32.288Z,27.8
2018-02-18T12:40:33.044Z,28.3
2018-02-18T12:41:33.780Z,28.4
2018-02-18T12:42:34.517Z,26.7
2018-02-18T12:43:35.250Z,24.4
2018-02-18T12:44:36.016Z,31.6
2018-02-18T12:45:36.746Z,26.2
2018-02-18T12:46:37.479Z,23.6
2018-02-18T12:47:38.210Z,25.7
2018-02-18T12:48:38.956Z,27.1
2018-02-18T12:49:39.683Z,27.7
2018-02-18T12:50:40.435Z,29.0
2018-02-18T12:51:41.165Z,27.2
2018-02-18T12:52:41.917Z,27.4
2018-02-18T12:53:42.648Z,24.9
2018-02-18T12:54:43.542Z,29.1
2018-02-18T12:55:44.209Z,28.5
2018-02-18T12:56:44.930Z,24.4
2018-02-18T12:57:45.746Z,29.3
2018-02-18T12:58:46.458Z,27.8
2018-02-18T12:59:47.218Z,27.4
2018-02-18T13:00:48.010Z,21.5
2018-02-18T13:01:48.744Z,27.6
2018-02-18T13:02:49.539Z,25.3
2018-02-18T13:03:50.267Z,24.2
2018-02-18T13:04:51.069Z,27.0
2018-02-18T13:05:51.814Z,24.0
2018-02-18T13:06:52.575Z,24.9
2018-02-18T13:07:53.316Z,27.7
2018-02-18T13:08:54.053Z,25.9
2018-02-18T13:09:54.840Z,30.8
2018-02-18T13:10:55.582Z,27.5
2018-02-18T13:11:56.405Z,27.5
2018-02-18T13:12:57.136Z,24.6
2018-02-18T13:13:57.878Z,21.9
2018-02-18T13:14:58.674Z,24.1
2018-02-18T13:15:59.471Z,28.2
2018-02-18T13:17:00.210Z,24.3
2018-02-18T13:18:00.972Z,33.0
2018-02-18T13:19:01.647Z,25.6
2018-02-18T13:20:02.440Z,28.4
2018-02-18T13:21:03.166Z,27.4
2018-02-18T13:22:03.922Z,26.2
2018-02-18T13:23:06.128Z,24.8
2018-02-18T13:24:06.795Z,25.2
2018-02-18T13:25:07.634Z,29.2
2018-02-18T13:26:08.408Z,24.0
2018-02-18T13:27:09.156Z,25.6